Time,TemperatureF,DewpointF,PressureIn,WindDirection,WindDirectionDegrees,WindSpeedMPH,WindSpeedGustMPH,Humidity,HourlyPrecipIn,Conditions,Clouds,dailyrainin,SoftwareType,DateUTC
2013-04-06 00:00:00,28.7,13.8,29.91,ESE,116,0.0,2.0,53,0.00,,BKN050,0.00,VWS V12.08,2013-04-06 04:00:00,
2013-04-06 00:01:00,28.7,14.2,29.91,ESE,104,3.0,3.0,54,0.00,,BKN050,0.00,VWS V12.08,2013-04-06 04:01:00,
2013-04-06 00:07:00,28.7,13.8,29.91,NW,312,0.0,0.0,53,0.00,,BKN050,0.00,VWS V12.08,2013-04-06 04:07:00,
2013-04-06 00:12:00,28.7,14.2,29.91,WNW,284,0.0,2.0,54,0.00,,BKN050,0.00,VWS V12.08,2013-04-06 04:12:00,
2013-04-06 00:17:00,28.7,13.8,29.91,East,85,0.0,6.0,53,0.00,,BKN050,0.00,VWS V12.08,2013-04-06 04:17:00,
2013-04-06 00:22:00,28.6,14.1,29.91,ENE,71,3.0,10.0,54,0.00,,BKN050,0.00,VWS V12.08,2013-04-06 04:22:00,
2013-04-06 00:27:00,28.7,13.8,29.91,SSE,158,6.0,6.0,53,0.00,,BKN050,0.00,VWS V12.08,2013-04-06 04:27:00,
2013-04-06 00:32:00,28.7,14.2,29.92,ESE,107,0.0,2.0,54,0.00,,BKN050,0.00,VWS V12.08,2013-04-06 04:32:00,
2013-04-06 00:37:00,28.7,15.0,29.92,ENE,78,1.0,5.0,56,0.00,,BKN050,0.00,VWS V12.08,2013-04-06 04:37:00,
2013-04-06 00:43:00,28.6,15.7,29.92,NW,320,1.0,6.0,58,0.00,,OVC060,0.00,VWS V12.08,2013-04-06 04:43:00,
2013-04-06 00:48:00,28.4,15.9,29.92,East,82,3.0,4.0,59,0.00,,OVC060,0.00,VWS V12.08,2013-04-06 04:48:00,
2013-04-06 00:53:00,28.3,16.2,29.92,NE,56,5.0,7.0,60,0.00,,OVC060,0.00,VWS V12.08,2013-04-06 04:53:00,
2013-04-06 00:58:00,28.3,16.6,29.92,ENE,72,0.0,7.0,61,0.00,,OVC060,0.00,VWS V12.08,2013-04-06 04:58:00,
2013-04-06 01:03:00,28.3,16.6,29.92,ENE,68,3.0,3.0,61,0.00,,OVC060,0.00,VWS V12.08,2013-04-06 05:03:00,
2013-04-06 01:08:00,28.1,16.0,29.92,WNW,287,0.0,2.0,60,0.00,,OVC060,0.00,VWS V12.08,2013-04-06 05:08:00,
2013-04-06 01:13:00,28.1,16.8,29.93,East,79,2.0,6.0,62,0.00,,OVC060,0.00,VWS V12.08,2013-04-06 05:13:00,
2013-04-06 01:18:00,28.0,17.0,29.93,ENE,72,2.0,6.0,63,0.00,,OVC060,0.00,VWS V12.08,2013-04-06 05:18:00,
2013-04-06 01:23:00,27.8,16.9,29.93,ENE,78,1.0,2.0,63,0.00,,OVC060,0.00,VWS V12.08,2013-04-06 05:23:00,
2013-04-06 01:28:00,27.8,17.2,29.93,ENE,76,1.0,6.0,64,0.00,,OVC060,0.00,VWS V12.08,2013-04-06 05:28:00,
2013-04-06 01:33:00,27.7,16.8,29.93,NE,56,2.0,4.0,63,0.00,,OVC060,0.00,VWS V12.08,2013-04-06 05:33:00,
2013-04-06 01:38:00,27.7,17.1,29.93,NE,56,1.0,2.0,64,0.00,,OVC060,0.00,VWS V12.08,2013-04-06 05:38:00,
2013-04-06 01:43:00,27.7,17.5,29.94,ENE,58,0.0,2.0,65,0.00,,OVC065,0.00,VWS V12.08,2013-04-06 05:43:00,
2013-04-06 01:48:00,27.4,17.2,29.94,NNE,21,2.0,2.0,65,0.00,,OVC065,0.00,VWS V12.08,2013-04-06 05:48:00,
2013-04-06 01:53:00,27.4,17.9,29.94,WSW,253,1.0,3.0,67,0.00,,OVC065,0.00,VWS V12.08,2013-04-06 05:53:00,
2013-04-06 01:58:00,27.1,16.9,29.95,East,79,2.0,6.0,65,0.00,,OVC065,0.00,VWS V12.08,2013-04-06 05:58:00,
2013-04-06 02:03:00,27.1,16.6,29.95,SE,130,0.0,3.0,64,0.00,,,0.00,VWS V12.08,2013-04-06 06:03:00,
2013-04-06 02:08:00,27.0,16.5,29.95,NNW,329,0.0,2.0,64,0.00,,,0.00,VWS V12.08,2013-04-06 06:08:00,
2013-04-06 02:13:00,27.0,17.5,29.95,SSW,213,3.0,6.0,67,0.00,,,0.00,VWS V12.08,2013-04-06 06:13:00,
2013-04-06 02:18:00,26.8,15.9,29.95,NW,318,11.0,11.0,63,0.00,,,0.00,VWS V12.08,2013-04-06 06:18:00,
2013-04-06 02:23:00,26.8,14.4,29.95,West,280,0.0,5.0,59,0.00,,,0.00,VWS V12.08,2013-04-06 06:23:00,
2013-04-06 02:28:00,26.7,13.9,29.95,NW,308,2.0,4.0,58,0.00,,,0.00,VWS V12.08,2013-04-06 06:28:00,
2013-04-06 02:33:00,26.5,12.5,29.95,NW,322,4.0,9.0,55,0.00,,,0.00,VWS V12.08,2013-04-06 06:33:00,
2013-04-06 02:38:00,26.4,12.4,29.95,NW,308,0.0,6.0,55,0.00,,,0.00,VWS V12.08,2013-04-06 06:38:00,
2013-04-06 02:43:00,26.2,12.7,29.96,West,281,1.0,6.0,56,0.00,,,0.00,VWS V12.08,2013-04-06 06:43:00,
2013-04-06 02:48:00,26.1,12.6,29.96,SSW,192,2.0,3.0,56,0.00,,,0.00,VWS V12.08,2013-04-06 06:48:00,
2013-04-06 02:53:00,25.9,12.8,29.96,North,354,2.0,2.0,57,0.00,,,0.00,VWS V12.08,2013-04-06 06:53:00,
2013-04-06 02:59:00,25.9,13.9,29.97,NE,38,7.0,7.0,60,0.00,,,0.00,VWS V12.08,2013-04-06 06:59:00,
2013-04-06 03:04:00,25.5,17.8,29.97,ENE,61,6.0,9.0,72,0.00,,,0.00,VWS V12.08,2013-04-06 07:04:00,
2013-04-06 03:09:00,24.6,18.1,29.97,ENE,78,0.0,5.0,76,0.00,,,0.00,VWS V12.08,2013-04-06 07:09:00,
2013-04-06 03:14:00,24.1,17.6,29.98,East,93,0.0,0.0,76,0.00,,,0.00,VWS V12.08,2013-04-06 07:14:00,
2013-04-06 03:19:00,24.0,16.9,29.98,East,83,1.0,3.0,74,0.00,,,0.00,VWS V12.08,2013-04-06 07:19:00,
2013-04-06 03:24:00,24.0,16.6,29.98,NE,51,4.0,5.0,73,0.00,,,0.00,VWS V12.08,2013-04-06 07:24:00,
2013-04-06 03:29:00,24.0,16.0,29.99,East,97,4.0,6.0,71,0.00,,,0.00,VWS V12.08,2013-04-06 07:29:00,
2013-04-06 03:34:00,24.1,16.1,29.99,East,82,1.0,8.0,71,0.00,,,0.00,VWS V12.08,2013-04-06 07:34:00,
2013-04-06 03:39:00,24.0,15.0,29.99,NNE,18,2.0,5.0,68,0.00,,,0.00,VWS V12.08,2013-04-06 07:39:00,
2013-04-06 03:45:00,23.7,14.0,30.01,ENE,69,0.0,5.0,66,0.00,,FEW016,0.00,VWS V12.08,2013-04-06 07:45:00,
2013-04-06 03:50:00,23.4,13.0,30.01,East,85,1.0,4.0,64,0.00,,FEW016,0.00,VWS V12.08,2013-04-06 07:50:00,
2013-04-06 03:55:00,23.1,12.4,30.01,SSW,193,0.0,6.0,63,0.00,,FEW016,0.00,VWS V12.08,2013-04-06 07:55:00,
2013-04-06 04:00:00,23.0,11.9,30.02,NNE,28,1.0,4.0,62,0.00,,FEW016,0.00,VWS V12.08,2013-04-06 08:00:00,
2013-04-06 04:05:00,22.8,11.4,30.02,ENE,65,0.0,3.0,61,0.00,,FEW016,0.00,VWS V12.08,2013-04-06 08:05:00,
2013-04-06 04:10:00,22.5,11.1,30.02,East,92,3.0,5.0,61,0.00,,FEW016,0.00,VWS V12.08,2013-04-06 08:10:00,
2013-04-06 04:15:00,22.4,10.6,30.03,East,85,3.0,6.0,60,0.00,,FEW016,0.00,VWS V12.08,2013-04-06 08:15:00,
2013-04-06 04:20:00,22.2,9.7,30.03,NE,54,2.0,4.0,58,0.00,,FEW016,0.00,VWS V12.08,2013-04-06 08:20:00,
2013-04-06 04:25:00,22.2,9.7,30.03,SSE,157,2.0,3.0,58,0.00,,FEW016,0.00,VWS V12.08,2013-04-06 08:25:00,
2013-04-06 04:30:00,22.1,8.8,30.04,NE,38,1.0,4.0,56,0.00,,FEW016,0.00,VWS V12.08,2013-04-06 08:30:00,
2013-04-06 04:35:00,22.1,8.0,30.04,North,350,2.0,5.0,54,0.00,,FEW016,0.00,VWS V12.08,2013-04-06 08:35:00,
2013-04-06 04:40:00,21.9,7.8,30.04,NNW,328,2.0,5.0,54,0.00,,FEW016,0.00,VWS V12.08,2013-04-06 08:40:00,
2013-04-06 04:45:00,21.9,6.6,30.06,NE,38,0.0,7.0,51,0.00,,BKN070,0.00,VWS V12.08,2013-04-06 08:45:00,
2013-04-06 04:50:00,21.8,6.0,30.06,South,185,4.0,4.0,50,0.00,,BKN070,0.00,VWS V12.08,2013-04-06 08:50:00,
2013-04-06 04:55:00,21.8,4.7,30.06,NE,45,1.0,5.0,47,0.00,,BKN070,0.00,VWS V12.08,2013-04-06 08:55:00,
2013-04-06 05:00:00,21.6,4.5,30.06,NNE,23,3.0,3.0,47,0.00,,BKN070,0.00,VWS V12.08,2013-04-06 09:00:00,
2013-04-06 05:05:00,21.5,4.4,30.06,ENE,69,0.0,6.0,47,0.00,,BKN070,0.00,VWS V12.08,2013-04-06 09:05:00,
2013-04-06 05:10:00,21.3,4.7,30.06,East,80,2.0,11.0,48,0.00,,BKN070,0.00,VWS V12.08,2013-04-06 09:10:00,
2013-04-06 05:15:00,21.3,6.0,30.08,North,8,6.0,7.0,51,0.00,,BKN070,0.00,VWS V12.08,2013-04-06 09:15:00,
2013-04-06 05:20:00,21.2,5.5,30.08,ENE,61,0.0,0.0,50,0.00,,BKN070,0.00,VWS V12.08,2013-04-06 09:20:00,
2013-04-06 05:25:00,21.2,6.3,30.08,East,80,0.0,2.0,52,0.00,,BKN070,0.00,VWS V12.08,2013-04-06 09:25:00,
2013-04-06 05:30:00,21.2,6.3,30.09,East,82,0.0,2.0,52,0.00,,BKN070,0.00,VWS V12.08,2013-04-06 09:30:00,
2013-04-06 05:35:00,21.2,5.9,30.09,East,90,0.0,2.0,51,0.00,,BKN070,0.00,VWS V12.08,2013-04-06 09:35:00,
2013-04-06 05:40:00,21.0,6.2,30.09,South,172,1.0,6.0,52,0.00,,BKN070,0.00,VWS V12.08,2013-04-06 09:40:00,
2013-04-06 05:45:00,21.0,5.3,30.10,NNE,32,2.0,3.0,50,0.00,,SCT043,0.00,VWS V12.08,2013-04-06 09:45:00,
2013-04-06 05:50:00,21.0,5.7,30.10,SSE,160,1.0,3.0,51,0.00,,SCT043,0.00,VWS V12.08,2013-04-06 09:50:00,
2013-04-06 05:55:00,21.0,5.7,30.10,NNW,346,0.0,0.0,51,0.00,,SCT043,0.00,VWS V12.08,2013-04-06 09:55:00,
2013-04-06 06:00:00,20.9,5.2,30.11,ESE,102,4.0,7.0,50,0.00,,SCT043,0.00,VWS V12.08,2013-04-06 10:00:00,
2013-04-06 06:06:00,20.9,4.8,30.11,SE,124,4.0,6.0,49,0.00,,SCT043,0.00,VWS V12.08,2013-04-06 10:06:00,
2013-04-06 06:11:00,20.9,5.2,30.11,NNW,337,0.0,16.0,50,0.00,,SCT043,0.00,VWS V12.08,2013-04-06 10:11:00,
2013-04-06 06:17:00,20.9,4.3,30.12,East,86,6.0,7.0,48,0.00,,SCT043,0.00,VWS V12.08,2013-04-06 10:17:00,
2013-04-06 06:22:00,20.9,4.3,30.12,ENE,75,12.0,16.0,48,0.00,,SCT043,0.00,VWS V12.08,2013-04-06 10:22:00,
2013-04-06 06:27:00,20.9,3.8,30.12,East,79,6.0,6.0,47,0.00,,SCT043,0.00,VWS V12.08,2013-04-06 10:27:00,
2013-04-06 06:32:00,20.9,3.4,30.14,ENE,73,5.0,7.0,46,0.00,,SCT043,0.00,VWS V12.08,2013-04-06 10:32:00,
2013-04-06 06:37:00,20.7,2.7,30.14,East,79,2.0,6.0,45,0.00,,SCT043,0.00,VWS V12.08,2013-04-06 10:37:00,
2013-04-06 06:42:00,20.7,3.2,30.14,NW,305,1.0,3.0,46,0.00,,OVC050,0.00,VWS V12.08,2013-04-06 10:42:00,
2013-04-06 06:47:00,20.7,2.2,30.15,NE,37,1.0,4.0,44,0.00,,OVC050,0.00,VWS V12.08,2013-04-06 10:47:00,
2013-04-06 06:53:00,20.9,2.9,30.15,North,11,3.0,8.0,45,0.00,,OVC050,0.00,VWS V12.08,2013-04-06 10:53:00,
2013-04-06 06:58:00,21.0,3.5,30.16,East,82,3.0,4.0,46,0.00,,OVC050,0.00,VWS V12.08,2013-04-06 10:58:00,
2013-04-06 07:03:00,21.3,3.3,30.16,ENE,62,0.0,5.0,45,0.00,,OVC050,0.00,VWS V12.08,2013-04-06 11:03:00,
2013-04-06 07:08:00,21.5,3.0,30.16,ENE,71,7.0,17.0,44,0.00,,OVC050,0.00,VWS V12.08,2013-04-06 11:08:00,
2013-04-06 07:13:00,21.5,3.0,30.17,ENE,68,4.0,4.0,44,0.00,,OVC050,0.00,VWS V12.08,2013-04-06 11:13:00,
2013-04-06 07:18:00,21.6,2.6,30.17,ENE,68,2.0,5.0,43,0.00,,OVC050,0.00,VWS V12.08,2013-04-06 11:18:00,
2013-04-06 07:23:00,21.8,3.2,30.17,North,0,1.0,4.0,44,0.00,,OVC050,0.00,VWS V12.08,2013-04-06 11:23:00,
2013-04-06 07:28:00,22.2,2.1,30.18,NNE,31,1.0,11.0,41,0.00,,OVC050,0.00,VWS V12.08,2013-04-06 11:28:00,
2013-04-06 07:33:00,23.0,2.8,30.18,NE,56,2.0,11.0,41,0.00,,OVC050,0.00,VWS V12.08,2013-04-06 11:33:00,
2013-04-06 07:38:00,23.3,2.6,30.18,NE,41,2.0,4.0,40,0.00,,OVC050,0.00,VWS V12.08,2013-04-06 11:38:00,
2013-04-06 07:43:00,23.3,2.6,30.18,NNE,28,1.0,6.0,40,0.00,,BKN048,0.00,VWS V12.08,2013-04-06 11:43:00,
2013-04-06 07:48:00,23.7,1.8,30.18,East,100,8.0,14.0,38,0.00,,BKN048,0.00,VWS V12.08,2013-04-06 11:48:00,
2013-04-06 07:53:00,23.3,1.5,30.18,SE,127,2.0,7.0,38,0.00,,BKN048,0.00,VWS V12.08,2013-04-06 11:53:00,
2013-04-06 07:58:00,23.6,2.8,30.18,SE,145,2.0,3.0,40,0.00,,BKN048,0.00,VWS V12.08,2013-04-06 11:58:00,
2013-04-06 08:03:00,23.7,2.4,30.18,East,96,0.0,6.0,39,0.00,,BKN048,0.00,VWS V12.08,2013-04-06 12:03:00,
2013-04-06 08:08:00,23.8,1.3,30.18,West,265,1.0,6.0,37,0.00,,BKN048,0.00,VWS V12.08,2013-04-06 12:08:00,
2013-04-06 08:13:00,24.0,1.5,30.19,ENE,61,3.0,8.0,37,0.00,,BKN048,0.00,VWS V12.08,2013-04-06 12:13:00,
2013-04-06 08:19:00,24.3,1.8,30.19,NW,312,5.0,6.0,37,0.00,,BKN048,0.00,VWS V12.08,2013-04-06 12:19:00,
2013-04-06 08:26:00,24.6,2.6,30.19,NNW,347,2.0,12.0,38,0.00,,BKN048,0.00,VWS V12.08,2013-04-06 12:26:00,
2013-04-06 08:31:00,24.4,0.7,30.19,NE,45,2.0,10.0,35,0.00,,BKN048,0.00,VWS V12.08,2013-04-06 12:31:00,
2013-04-06 08:36:00,25.0,1.2,30.19,NNE,30,1.0,6.0,35,0.00,,BKN048,0.00,VWS V12.08,2013-04-06 12:36:00,
2013-04-06 08:41:00,25.5,1.7,30.19,SSW,205,2.0,7.0,35,0.00,,BKN048,0.00,VWS V12.08,2013-04-06 12:41:00,
2013-04-06 08:46:00,25.2,0.8,30.19,NNE,28,7.0,14.0,34,0.00,,BKN048,0.00,VWS V12.08,2013-04-06 12:46:00,
2013-04-06 08:51:00,25.3,1.5,30.19,NNE,30,3.0,16.0,35,0.00,,BKN048,0.00,VWS V12.08,2013-04-06 12:51:00,
2013-04-06 08:56:00,25.3,0.2,30.19,NNW,328,0.0,6.0,33,0.00,,BKN048,0.00,VWS V12.08,2013-04-06 12:56:00,
2013-04-06 09:01:00,25.5,2.3,30.19,NNE,13,0.0,6.0,36,0.00,,BKN048,0.00,VWS V12.08,2013-04-06 13:01:00,
2013-04-06 09:06:00,26.2,2.3,30.19,East,83,6.0,6.0,35,0.00,,BKN048,0.00,VWS V12.08,2013-04-06 13:06:00,
2013-04-06 09:11:00,25.9,1.4,30.19,ESE,106,6.0,6.0,34,0.00,,BKN048,0.00,VWS V12.08,2013-04-06 13:11:00,
2013-04-06 09:16:00,25.6,1.1,30.20,North,11,0.0,3.0,34,0.00,,BKN048,0.00,VWS V12.08,2013-04-06 13:16:00,
2013-04-06 09:22:00,25.6,1.8,30.20,NNE,23,2.0,3.0,35,0.00,,OVC035,0.00,VWS V12.08,2013-04-06 13:22:00,
2013-04-06 09:27:00,25.3,1.5,30.20,NNW,328,2.0,7.0,35,0.00,,OVC035,0.00,VWS V12.08,2013-04-06 13:27:00,
2013-04-06 09:32:00,25.5,2.3,30.20,ENE,61,3.0,7.0,36,0.00,,OVC035,0.00,VWS V12.08,2013-04-06 13:32:00,
2013-04-06 09:37:00,26.2,2.9,30.20,East,100,1.0,5.0,36,0.00,,OVC035,0.00,VWS V12.08,2013-04-06 13:37:00,
2013-04-06 09:43:00,26.1,2.8,30.20,East,89,3.0,7.0,36,0.00,,BKN041,0.00,VWS V12.08,2013-04-06 13:43:00,
2013-04-06 09:48:00,26.1,1.6,30.20,ENE,64,0.0,4.0,34,0.00,,BKN041,0.00,VWS V12.08,2013-04-06 13:48:00,
2013-04-06 09:53:00,27.0,1.1,30.20,ENE,73,6.0,8.0,32,0.00,,BKN041,0.00,VWS V12.08,2013-04-06 13:53:00,
2013-04-06 09:58:00,27.1,1.2,30.21,NE,38,2.0,5.0,32,0.00,,BKN041,0.00,VWS V12.08,2013-04-06 13:58:00,
2013-04-06 10:04:00,26.7,0.8,30.21,East,86,8.0,12.0,32,0.00,,BKN041,0.00,VWS V12.08,2013-04-06 14:04:00,
2013-04-06 10:09:00,26.5,0.6,30.21,SSW,210,0.0,4.0,32,0.00,,BKN041,0.00,VWS V12.08,2013-04-06 14:09:00,
2013-04-06 10:14:00,26.4,1.9,30.22,NW,322,1.0,6.0,34,0.00,,BKN041,0.00,VWS V12.08,2013-04-06 14:14:00,
2013-04-06 10:19:00,26.4,0.6,30.22,SE,128,3.0,7.0,32,0.00,,BKN041,0.00,VWS V12.08,2013-04-06 14:19:00,
2013-04-06 10:25:00,27.3,2.0,30.22,North,352,3.0,3.0,33,0.00,,BKN041,0.00,VWS V12.08,2013-04-06 14:25:00,
2013-04-06 10:30:00,28.1,1.4,30.23,West,272,3.0,5.0,31,0.00,,BKN041,0.00,VWS V12.08,2013-04-06 14:30:00,
2013-04-06 10:35:00,28.1,-0.1,30.23,NNE,24,1.0,6.0,29,0.00,,BKN041,0.00,VWS V12.08,2013-04-06 14:35:00,
2013-04-06 10:40:00,28.9,2.1,30.23,SW,227,1.0,2.0,31,0.00,,BKN041,0.00,VWS V12.08,2013-04-06 14:40:00,
2013-04-06 10:45:00,29.3,1.0,30.23,ESE,102,2.0,7.0,29,0.00,,SCT041,0.00,VWS V12.08,2013-04-06 14:45:00,
2013-04-06 10:50:00,29.2,1.6,30.23,ENE,59,3.0,7.0,30,0.00,,SCT041,0.00,VWS V12.08,2013-04-06 14:50:00,
2013-04-06 10:55:00,28.9,-0.9,30.23,West,274,6.0,8.0,27,0.00,,SCT041,0.00,VWS V12.08,2013-04-06 14:55:00,
2013-04-06 11:00:00,28.7,1.9,30.23,WNW,296,8.0,9.0,31,0.00,,SCT041,0.00,VWS V12.08,2013-04-06 15:00:00,
2013-04-06 11:05:00,28.6,0.4,30.23,WSW,256,5.0,11.0,29,0.00,,SCT041,0.00,VWS V12.08,2013-04-06 15:05:00,
2013-04-06 11:10:00,29.2,0.9,30.23,NNW,329,2.0,6.0,29,0.00,,SCT041,0.00,VWS V12.08,2013-04-06 15:10:00,
2013-04-06 11:15:00,29.0,1.5,30.24,WNW,285,2.0,4.0,30,0.00,,SCT041,0.00,VWS V12.08,2013-04-06 15:15:00,
2013-04-06 11:20:00,29.3,1.0,30.24,NE,44,8.0,10.0,29,0.00,,SCT041,0.00,VWS V12.08,2013-04-06 15:20:00,
2013-04-06 11:25:00,29.5,3.3,30.24,NW,326,4.0,12.0,32,0.00,,SCT041,0.00,VWS V12.08,2013-04-06 15:25:00,
2013-04-06 11:30:00,29.0,-0.8,30.23,West,280,4.0,13.0,27,0.00,,SCT041,0.00,VWS V12.08,2013-04-06 15:30:00,
2013-04-06 11:35:00,29.3,0.2,30.23,ENE,78,3.0,3.0,28,0.00,,SCT041,0.00,VWS V12.08,2013-04-06 15:35:00,
2013-04-06 11:40:00,30.1,0.9,30.23,NNW,339,6.0,8.0,28,0.00,,FEW050,0.00,VWS V12.08,2013-04-06 15:40:00,
2013-04-06 11:45:00,30.7,3.0,30.23,NNE,24,9.0,10.0,30,0.00,,FEW050,0.00,VWS V12.08,2013-04-06 15:45:00,
2013-04-06 11:51:00,31.2,1.1,30.23,ENE,76,3.0,10.0,27,0.00,,FEW050,0.00,VWS V12.08,2013-04-06 15:51:00,
2013-04-06 11:56:00,31.5,3.7,30.23,West,270,4.0,10.0,30,0.00,,FEW050,0.00,VWS V12.08,2013-04-06 15:56:00,
2013-04-06 12:01:00,31.1,1.0,30.23,WNW,298,2.0,5.0,27,0.00,,FEW050,0.00,VWS V12.08,2013-04-06 16:01:00,
2013-04-06 12:06:00,30.9,0.9,30.23,NW,306,6.0,12.0,27,0.00,,FEW050,0.00,VWS V12.08,2013-04-06 16:06:00,
2013-04-06 12:11:00,31.2,1.9,30.23,NW,319,3.0,10.0,28,0.00,,FEW050,0.00,VWS V12.08,2013-04-06 16:11:00,
2013-04-06 12:17:00,31.1,1.0,30.23,NW,313,0.0,4.0,27,0.00,,FEW050,0.00,VWS V12.08,2013-04-06 16:17:00,
2013-04-06 12:22:00,31.2,1.9,30.23,NNW,330,1.0,5.0,28,0.00,,FEW050,0.00,VWS V12.08,2013-04-06 16:22:00,
2013-04-06 12:27:00,31.5,2.2,30.23,West,261,1.0,5.0,28,0.00,,FEW050,0.00,VWS V12.08,2013-04-06 16:27:00,
2013-04-06 12:32:00,31.5,2.2,30.23,NE,51,2.0,3.0,28,0.00,,FEW050,0.00,VWS V12.08,2013-04-06 16:32:00,
2013-04-06 12:37:00,32.1,2.7,30.23,ENE,59,6.0,14.0,28,0.00,,FEW050,0.00,VWS V12.08,2013-04-06 16:37:00,
2013-04-06 12:42:00,32.4,2.9,30.23,North,10,1.0,11.0,28,0.00,,CLR,0.00,VWS V12.08,2013-04-06 16:42:00,
2013-04-06 12:47:00,32.3,2.1,30.24,North,11,6.0,9.0,27,0.00,,CLR,0.00,VWS V12.08,2013-04-06 16:47:00,
2013-04-06 12:52:00,32.3,0.4,30.24,North,6,5.0,10.0,25,0.00,,CLR,0.00,VWS V12.08,2013-04-06 16:52:00,
2013-04-06 12:57:00,31.5,0.6,30.24,NE,51,1.0,7.0,26,0.00,,CLR,0.00,VWS V12.08,2013-04-06 16:57:00,
2013-04-06 13:03:00,31.7,1.6,30.24,NNE,28,6.0,11.0,27,0.00,,CLR,0.00,VWS V12.08,2013-04-06 17:03:00,
2013-04-06 13:08:00,32.4,2.9,30.24,ENE,66,6.0,9.0,28,0.00,,CLR,0.00,VWS V12.08,2013-04-06 17:08:00,
2013-04-06 13:13:00,33.0,1.9,30.24,NW,322,8.0,12.0,26,0.00,,CLR,0.00,VWS V12.08,2013-04-06 17:13:00,
2013-04-06 13:18:00,32.6,2.3,30.24,NNE,25,7.0,11.0,27,0.00,,CLR,0.00,VWS V12.08,2013-04-06 17:18:00,
2013-04-06 13:23:00,33.0,2.7,30.24,NE,42,5.0,11.0,27,0.00,,CLR,0.00,VWS V12.08,2013-04-06 17:23:00,
2013-04-06 13:28:00,33.8,4.9,30.23,NW,325,3.0,6.0,29,0.00,,CLR,0.00,VWS V12.08,2013-04-06 17:28:00,
2013-04-06 13:33:00,34.0,2.7,30.23,NE,55,0.0,8.0,26,0.00,,CLR,0.00,VWS V12.08,2013-04-06 17:33:00,
2013-04-06 13:38:00,34.0,1.9,30.23,West,261,3.0,7.0,25,0.00,,CLR,0.00,VWS V12.08,2013-04-06 17:38:00,
2013-04-06 13:43:00,33.3,2.1,30.24,NE,49,0.0,3.0,26,0.00,,CLR,0.00,VWS V12.08,2013-04-06 17:43:00,
2013-04-06 13:48:00,33.3,2.9,30.24,SW,232,4.0,5.0,27,0.00,,CLR,0.00,VWS V12.08,2013-04-06 17:48:00,
2013-04-06 13:53:00,33.6,1.5,30.24,West,265,6.0,8.0,25,0.00,,CLR,0.00,VWS V12.08,2013-04-06 17:53:00,
2013-04-06 13:58:00,33.6,3.2,30.23,West,280,1.0,2.0,27,0.00,,CLR,0.00,VWS V12.08,2013-04-06 17:58:00,
2013-04-06 14:03:00,34.3,2.2,30.23,East,86,3.0,3.0,25,0.00,,CLR,0.00,VWS V12.08,2013-04-06 18:03:00,
2013-04-06 14:08:00,34.0,2.7,30.23,NW,304,5.0,6.0,26,0.00,,CLR,0.00,VWS V12.08,2013-04-06 18:08:00,
2013-04-06 14:13:00,34.3,2.2,30.23,NNE,13,0.0,4.0,25,0.00,,CLR,0.00,VWS V12.08,2013-04-06 18:13:00,
2013-04-06 14:18:00,34.0,1.0,30.23,ENE,72,8.0,8.0,24,0.00,,CLR,0.00,VWS V12.08,2013-04-06 18:18:00,
2013-04-06 14:23:00,33.9,1.8,30.23,North,359,2.0,6.0,25,0.00,,CLR,0.00,VWS V12.08,2013-04-06 18:23:00,
2013-04-06 14:28:00,34.5,1.4,30.23,East,100,3.0,3.0,24,0.00,,CLR,0.00,VWS V12.08,2013-04-06 18:28:00,
2013-04-06 14:33:00,33.9,0.9,30.23,ENE,65,1.0,3.0,24,0.00,,CLR,0.00,VWS V12.08,2013-04-06 18:33:00,
2013-04-06 14:38:00,33.9,0.9,30.23,East,96,0.0,4.0,24,0.00,,CLR,0.00,VWS V12.08,2013-04-06 18:38:00,
2013-04-06 14:44:00,34.3,3.8,30.22,WNW,288,1.0,3.0,27,0.00,,CLR,0.00,VWS V12.08,2013-04-06 18:44:00,
2013-04-06 14:49:00,34.5,2.3,30.22,ENE,72,7.0,11.0,25,0.00,,CLR,0.00,VWS V12.08,2013-04-06 18:49:00,
2013-04-06 14:54:00,35.0,2.8,30.22,ENE,61,8.0,10.0,25,0.00,,CLR,0.00,VWS V12.08,2013-04-06 18:54:00,
2013-04-06 14:59:00,35.5,2.3,30.22,East,100,7.0,11.0,24,0.00,,CLR,0.00,VWS V12.08,2013-04-06 18:59:00,
2013-04-06 15:05:00,34.9,3.5,30.22,NE,49,1.0,6.0,26,0.00,,CLR,0.00,VWS V12.08,2013-04-06 19:05:00,
2013-04-06 15:10:00,35.0,1.9,30.22,North,352,2.0,6.0,24,0.00,,CLR,0.00,VWS V12.08,2013-04-06 19:10:00,
2013-04-06 15:15:00,34.8,2.6,30.23,SSW,213,1.0,3.0,25,0.00,,CLR,0.00,VWS V12.08,2013-04-06 19:15:00,
2013-04-06 15:20:00,34.6,2.4,30.23,East,95,2.0,3.0,25,0.00,,CLR,0.00,VWS V12.08,2013-04-06 19:20:00,
2013-04-06 15:25:00,34.8,3.4,30.23,NNW,347,5.0,6.0,26,0.00,,CLR,0.00,VWS V12.08,2013-04-06 19:25:00,
2013-04-06 15:30:00,35.3,3.0,30.22,WNW,285,2.0,4.0,25,0.00,,CLR,0.00,VWS V12.08,2013-04-06 19:30:00,
2013-04-06 15:35:00,35.0,3.6,30.22,SSW,206,2.0,6.0,26,0.00,,CLR,0.00,VWS V12.08,2013-04-06 19:35:00,
2013-04-06 15:40:00,35.2,4.6,30.22,WNW,285,2.0,5.0,27,0.00,,CLR,0.00,VWS V12.08,2013-04-06 19:40:00,
2013-04-06 15:45:00,35.5,4.0,30.22,West,265,3.0,3.0,26,0.00,,CLR,0.00,VWS V12.08,2013-04-06 19:45:00,
2013-04-06 15:50:00,35.0,2.8,30.22,NW,319,0.0,0.0,25,0.00,,CLR,0.00,VWS V12.08,2013-04-06 19:50:00,
2013-04-06 15:55:00,34.9,2.7,30.22,NW,312,6.0,9.0,25,0.00,,CLR,0.00,VWS V12.08,2013-04-06 19:55:00,
2013-04-06 16:00:00,35.2,2.9,30.22,WNW,294,0.0,2.0,25,0.00,,CLR,0.00,VWS V12.08,2013-04-06 20:00:00,
2013-04-06 16:05:00,35.2,2.9,30.22,NE,41,1.0,4.0,25,0.00,,CLR,0.00,VWS V12.08,2013-04-06 20:05:00,
2013-04-06 16:10:00,35.2,3.8,30.22,SW,227,1.0,6.0,26,0.00,,CLR,0.00,VWS V12.08,2013-04-06 20:10:00,
2013-04-06 16:15:00,35.5,3.2,30.21,NE,52,2.0,3.0,25,0.00,,CLR,0.00,VWS V12.08,2013-04-06 20:15:00,
2013-04-06 16:20:00,35.2,2.0,30.21,NNE,23,6.0,6.0,24,0.00,,CLR,0.00,VWS V12.08,2013-04-06 20:20:00,
2013-04-06 16:25:00,34.8,1.7,30.21,ENE,73,6.0,6.0,24,0.00,,CLR,0.00,VWS V12.08,2013-04-06 20:25:00,
2013-04-06 16:30:00,34.6,3.2,30.21,NNW,343,0.0,11.0,26,0.00,,CLR,0.00,VWS V12.08,2013-04-06 20:30:00,
2013-04-06 16:35:00,35.0,1.9,30.21,SSW,203,0.0,0.0,24,0.00,,CLR,0.00,VWS V12.08,2013-04-06 20:35:00,
2013-04-06 16:40:00,34.9,1.8,30.21,ENE,71,8.0,11.0,24,0.00,,CLR,0.00,VWS V12.08,2013-04-06 20:40:00,
2013-04-06 16:45:00,34.8,2.6,30.22,SW,236,0.0,2.0,25,0.00,,CLR,0.00,VWS V12.08,2013-04-06 20:45:00,
2013-04-06 16:51:00,35.0,1.9,30.22,East,79,2.0,5.0,24,0.00,,CLR,0.00,VWS V12.08,2013-04-06 20:51:00,
2013-04-06 16:56:00,35.3,3.0,30.22,NW,306,2.0,3.0,25,0.00,,CLR,0.00,VWS V12.08,2013-04-06 20:56:00,
2013-04-06 17:01:00,35.6,2.4,30.23,NW,308,0.0,2.0,24,0.00,,CLR,0.00,VWS V12.08,2013-04-06 21:01:00,
2013-04-06 17:06:00,35.8,0.7,30.23,NNW,347,2.0,4.0,22,0.00,,CLR,0.00,VWS V12.08,2013-04-06 21:06:00,
2013-04-06 17:11:00,35.5,0.4,30.23,NNW,336,2.0,2.0,22,0.00,,CLR,0.00,VWS V12.08,2013-04-06 21:11:00,
2013-04-06 17:16:00,35.2,1.1,30.23,SSE,165,0.0,3.0,23,0.00,,CLR,0.00,VWS V12.08,2013-04-06 21:16:00,
2013-04-06 17:22:00,35.0,1.0,30.23,South,188,1.0,4.0,23,0.00,,CLR,0.00,VWS V12.08,2013-04-06 21:22:00,
2013-04-06 17:27:00,34.8,0.8,30.23,SSE,151,2.0,6.0,23,0.00,,CLR,0.00,VWS V12.08,2013-04-06 21:27:00,
2013-04-06 17:32:00,34.9,1.8,30.24,ENE,68,1.0,5.0,24,0.00,,CLR,0.00,VWS V12.08,2013-04-06 21:32:00,
2013-04-06 17:37:00,35.0,1.0,30.24,NNE,16,0.0,0.0,23,0.00,,CLR,0.00,VWS V12.08,2013-04-06 21:37:00,
2013-04-06 17:42:00,35.2,1.1,30.24,SW,222,0.0,0.0,23,0.00,,CLR,0.00,VWS V12.08,2013-04-06 21:42:00,
2013-04-06 17:47:00,35.0,1.0,30.24,West,271,1.0,1.0,23,0.00,,CLR,0.00,VWS V12.08,2013-04-06 21:47:00,
2013-04-06 17:52:00,35.0,1.0,30.24,West,271,0.0,0.0,23,0.00,,CLR,0.00,VWS V12.08,2013-04-06 21:52:00,
2013-04-06 17:57:00,35.3,1.2,30.24,West,271,0.0,0.0,23,0.00,,CLR,0.00,VWS V12.08,2013-04-06 21:57:00,
2013-04-06 18:02:00,35.3,0.3,30.25,West,271,0.0,0.0,22,0.00,,CLR,0.00,VWS V12.08,2013-04-06 22:02:00,
2013-04-06 18:07:00,35.0,2.8,30.25,East,82,0.0,0.0,25,0.00,,CLR,0.00,VWS V12.08,2013-04-06 22:07:00,
2013-04-06 18:12:00,34.9,2.7,30.25,East,82,0.0,1.0,25,0.00,,CLR,0.00,VWS V12.08,2013-04-06 22:12:00,
2013-04-06 18:17:00,34.6,2.4,30.25,ENE,75,0.0,6.0,25,0.00,,CLR,0.00,VWS V12.08,2013-04-06 22:17:00,
2013-04-06 18:22:00,34.5,2.3,30.25,ENE,75,0.0,0.0,25,0.00,,CLR,0.00,VWS V12.08,2013-04-06 22:22:00,
2013-04-06 18:27:00,34.3,2.2,30.25,ENE,75,0.0,0.0,25,0.00,,CLR,0.00,VWS V12.08,2013-04-06 22:27:00,
2013-04-06 18:32:00,34.2,2.1,30.26,ENE,75,0.0,0.0,25,0.00,,CLR,0.00,VWS V12.08,2013-04-06 22:32:00,
2013-04-06 18:38:00,34.0,1.0,30.26,ENE,75,0.0,0.0,24,0.00,,CLR,0.00,VWS V12.08,2013-04-06 22:38:00,
2013-04-06 18:42:00,34.0,1.9,30.26,ENE,75,0.0,0.0,25,0.00,,CLR,0.00,VWS V12.08,2013-04-06 22:42:00,
2013-04-06 18:48:00,33.8,4.2,30.26,ENE,75,0.0,0.0,28,0.00,,CLR,0.00,VWS V12.08,2013-04-06 22:48:00,
2013-04-06 18:53:00,33.5,3.9,30.26,ENE,75,0.0,0.0,28,0.00,,CLR,0.00,VWS V12.08,2013-04-06 22:53:00,
2013-04-06 18:58:00,33.0,4.2,30.26,ENE,75,0.0,0.0,29,0.00,,CLR,0.00,VWS V12.08,2013-04-06 22:58:00,
2013-04-06 19:03:00,32.7,5.4,30.26,ENE,75,0.0,0.0,31,0.00,,CLR,0.00,VWS V12.08,2013-04-06 23:03:00,
2013-04-06 19:08:00,32.1,6.2,30.26,ENE,75,0.0,0.0,33,0.00,,CLR,0.00,VWS V12.08,2013-04-06 23:08:00,
2013-04-06 19:13:00,31.4,6.3,30.26,ENE,75,0.0,0.0,34,0.00,,CLR,0.00,VWS V12.08,2013-04-06 23:13:00,
2013-04-06 19:18:00,30.9,6.5,30.26,ENE,75,0.0,0.0,35,0.00,,CLR,0.00,VWS V12.08,2013-04-06 23:18:00,
2013-04-06 19:23:00,30.4,7.3,30.26,ENE,75,0.0,0.0,37,0.00,,CLR,0.00,VWS V12.08,2013-04-06 23:23:00,
2013-04-06 19:28:00,30.1,7.0,30.26,ENE,75,0.0,0.0,37,0.00,,CLR,0.00,VWS V12.08,2013-04-06 23:28:00,
2013-04-06 19:33:00,29.6,7.1,30.26,ENE,75,0.0,0.0,38,0.00,,CLR,0.00,VWS V12.08,2013-04-06 23:33:00,
2013-04-06 19:38:00,29.0,7.2,30.26,ENE,75,0.0,0.0,39,0.00,,CLR,0.00,VWS V12.08,2013-04-06 23:38:00,
2013-04-06 19:43:00,28.4,6.6,30.27,ENE,75,0.0,0.0,39,0.00,,CLR,0.00,VWS V12.08,2013-04-06 23:43:00,
2013-04-06 19:48:00,28.1,6.3,30.27,ENE,75,0.0,0.0,39,0.00,,CLR,0.00,VWS V12.08,2013-04-06 23:48:00,
2013-04-06 19:53:00,27.8,7.2,30.27,ENE,75,0.0,0.0,41,0.00,,CLR,0.00,VWS V12.08,2013-04-06 23:53:00,
2013-04-06 19:58:00,27.7,6.0,30.27,ENE,75,0.0,0.0,39,0.00,,CLR,0.00,VWS V12.08,2013-04-06 23:58:00,
2013-04-06 20:03:00,27.5,6.9,30.27,ENE,75,0.0,0.0,41,0.00,,CLR,0.00,VWS V12.08,2013-04-07 00:03:00,
2013-04-06 20:08:00,27.4,6.8,30.27,ENE,75,0.0,0.0,41,0.00,,CLR,0.00,VWS V12.08,2013-04-07 00:08:00,
2013-04-06 20:13:00,27.1,7.6,30.28,ENE,75,0.0,0.0,43,0.00,,CLR,0.00,VWS V12.08,2013-04-07 00:13:00,
2013-04-06 20:19:00,27.0,7.5,30.28,ENE,75,0.0,0.0,43,0.00,,CLR,0.00,VWS V12.08,2013-04-07 00:19:00,
2013-04-06 20:24:00,26.8,7.3,30.28,ENE,75,0.0,0.0,43,0.00,,CLR,0.00,VWS V12.08,2013-04-07 00:24:00,
2013-04-06 20:29:00,26.7,7.7,30.28,ENE,75,0.0,0.0,44,0.00,,CLR,0.00,VWS V12.08,2013-04-07 00:29:00,
2013-04-06 20:34:00,26.5,7.6,30.28,ENE,75,0.0,0.0,44,0.00,,CLR,0.00,VWS V12.08,2013-04-07 00:34:00,
2013-04-06 20:39:00,26.4,7.5,30.28,ENE,75,0.0,0.0,44,0.00,,CLR,0.00,VWS V12.08,2013-04-07 00:39:00,
2013-04-06 20:44:00,26.2,8.7,30.29,ENE,75,0.0,0.0,47,0.00,,CLR,0.00,VWS V12.08,2013-04-07 00:44:00,
2013-04-06 20:49:00,26.1,7.7,30.29,ENE,75,0.0,0.0,45,0.00,,CLR,0.00,VWS V12.08,2013-04-07 00:49:00,
2013-04-06 20:54:00,26.1,7.7,30.29,ENE,75,0.0,0.0,45,0.00,,CLR,0.00,VWS V12.08,2013-04-07 00:54:00,
2013-04-06 20:59:00,25.9,8.0,30.30,ENE,75,0.0,0.0,46,0.00,,CLR,0.00,VWS V12.08,2013-04-07 00:59:00,
2013-04-06 21:04:00,25.8,9.3,30.30,ENE,75,0.0,0.0,49,0.00,,CLR,0.00,VWS V12.08,2013-04-07 01:04:00,
2013-04-06 21:09:00,25.6,10.0,30.30,ENE,75,0.0,0.0,51,0.00,,CLR,0.00,VWS V12.08,2013-04-07 01:09:00,
2013-04-06 21:15:00,25.5,9.9,30.30,ENE,75,0.0,0.0,51,0.00,,CLR,0.00,VWS V12.08,2013-04-07 01:15:00,
2013-04-06 21:20:00,25.3,8.4,30.30,ENE,75,0.0,0.0,48,0.00,,CLR,0.00,VWS V12.08,2013-04-07 01:20:00,
2013-04-06 21:25:00,25.2,9.6,30.30,ENE,75,0.0,0.0,51,0.00,,CLR,0.00,VWS V12.08,2013-04-07 01:25:00,
2013-04-06 21:30:00,25.0,9.0,30.31,ENE,75,0.0,0.0,50,0.00,,CLR,0.00,VWS V12.08,2013-04-07 01:30:00,
2013-04-06 21:35:00,24.9,8.9,30.31,ENE,75,0.0,0.0,50,0.00,,CLR,0.00,VWS V12.08,2013-04-07 01:35:00,
2013-04-06 21:41:00,24.9,9.4,30.31,ENE,75,0.0,0.0,51,0.00,,CLR,0.00,VWS V12.08,2013-04-07 01:41:00,
2013-04-06 21:46:00,24.7,9.6,30.31,ENE,75,0.0,0.0,52,0.00,,CLR,0.00,VWS V12.08,2013-04-07 01:46:00,
2013-04-06 21:51:00,24.7,10.0,30.31,ENE,75,0.0,0.0,53,0.00,,CLR,0.00,VWS V12.08,2013-04-07 01:51:00,
2013-04-06 21:56:00,24.6,10.3,30.31,ENE,75,0.0,0.0,54,0.00,,CLR,0.00,VWS V12.08,2013-04-07 01:56:00,
2013-04-06 22:01:00,24.4,10.1,30.31,ENE,75,0.0,0.0,54,0.00,,CLR,0.00,VWS V12.08,2013-04-07 02:01:00,
2013-04-06 22:06:00,24.4,9.3,30.31,ENE,75,0.0,0.0,52,0.00,,CLR,0.00,VWS V12.08,2013-04-07 02:06:00,
2013-04-06 22:11:00,24.3,8.8,30.31,ENE,75,0.0,0.0,51,0.00,,CLR,0.00,VWS V12.08,2013-04-07 02:11:00,
2013-04-06 22:16:00,24.1,9.5,30.31,ENE,75,0.0,0.0,53,0.00,,CLR,0.00,VWS V12.08,2013-04-07 02:16:00,
2013-04-06 22:22:00,24.0,9.8,30.31,ENE,75,0.0,0.0,54,0.00,,CLR,0.00,VWS V12.08,2013-04-07 02:22:00,
2013-04-06 22:27:00,23.8,10.0,30.31,ENE,75,0.0,0.0,55,0.00,,CLR,0.00,VWS V12.08,2013-04-07 02:27:00,
2013-04-06 22:32:00,23.8,10.8,30.31,ENE,75,0.0,0.0,57,0.00,,CLR,0.00,VWS V12.08,2013-04-07 02:32:00,
2013-04-06 22:37:00,23.7,10.3,30.31,ENE,75,0.0,0.0,56,0.00,,CLR,0.00,VWS V12.08,2013-04-07 02:37:00,
2013-04-06 22:42:00,23.6,10.6,30.31,ENE,75,0.0,0.0,57,0.00,,CLR,0.00,VWS V12.08,2013-04-07 02:42:00,
2013-04-06 22:48:00,23.4,10.4,30.31,ENE,75,0.0,0.0,57,0.00,,CLR,0.00,VWS V12.08,2013-04-07 02:48:00,
2013-04-06 22:53:00,23.3,10.3,30.31,ENE,75,0.0,0.0,57,0.00,,CLR,0.00,VWS V12.08,2013-04-07 02:53:00,
2013-04-06 22:58:00,23.1,10.1,30.31,ENE,75,0.0,0.0,57,0.00,,CLR,0.00,VWS V12.08,2013-04-07 02:58:00,
2013-04-06 23:03:00,23.1,11.3,30.31,ENE,75,0.0,0.0,60,0.00,,CLR,0.00,VWS V12.08,2013-04-07 03:03:00,
2013-04-06 23:08:00,23.1,11.7,30.31,ENE,75,0.0,0.0,61,0.00,,CLR,0.00,VWS V12.08,2013-04-07 03:08:00,
2013-04-06 23:13:00,23.3,11.9,30.31,ENE,75,0.0,0.0,61,0.00,,CLR,0.00,VWS V12.08,2013-04-07 03:13:00,
2013-04-06 23:18:00,23.4,12.3,30.31,ENE,75,0.0,0.0,62,0.00,,CLR,0.00,VWS V12.08,2013-04-07 03:18:00,
2013-04-06 23:23:00,23.4,12.7,30.31,ENE,75,0.0,0.0,63,0.00,,CLR,0.00,VWS V12.08,2013-04-07 03:23:00,
2013-04-06 23:28:00,23.4,12.7,30.31,ENE,75,0.0,0.0,63,0.00,,CLR,0.00,VWS V12.08,2013-04-07 03:28:00,
2013-04-06 23:33:00,23.4,12.7,30.31,ENE,75,0.0,0.0,63,0.00,,CLR,0.00,VWS V12.08,2013-04-07 03:33:00,
2013-04-06 23:38:00,23.6,12.9,30.31,ENE,75,0.0,0.0,63,0.00,,CLR,0.00,VWS V12.08,2013-04-07 03:38:00,
2013-04-06 23:43:00,23.6,13.2,30.30,ENE,75,0.0,0.0,64,0.00,,CLR,0.00,VWS V12.08,2013-04-07 03:43:00,
2013-04-06 23:49:00,23.6,13.6,30.30,ENE,75,0.0,0.0,65,0.00,,CLR,0.00,VWS V12.08,2013-04-07 03:49:00,
2013-04-06 23:54:00,23.7,13.7,30.30,ENE,75,0.0,0.0,65,0.00,,CLR,0.00,VWS V12.08,2013-04-07 03:54:00,
2013-04-06 23:59:00,23.8,13.8,30.30,ENE,75,0.0,0.0,65,0.00,,CLR,0.00,VWS V12.08,2013-04-07 03:59:00,